sensor_id;sensor_type;location;lat;lon;timestamp;temperature;humidity
1379;DHT22;683;48.738;9.226;2023-03-21T00:00:00;8.80;99.90
1379;DHT22;683;48.738;9.226;2023-03-21T00:02:50;8.80;99.90
1379;DHT22;683;48.738;9.226;2023-03-21T00:05:18;8.80;99.90
1379;DHT22;683;48.738;9.226;2023-03-21T00:07:45;8.80;99.90
1379;DHT22;683;48.738;9.226;2023-03-21T00:10:13;8.80;99.90
1379;DHT22;683;48.738;9.226;2023-03-21T00:12:42;8.80;99.90
1379;DHT22;683;48.738;9.226;2023-03-21T00:15:11;8.80;99.90
1379;DHT22;683;48.738;9.226;2023-03-21T00:17:38;8.80;99.90
1379;DHT22;683;48.738;9.226;2023-03-21T00:20:09;8.80;99.90
1379;DHT22;683;48.738;9.226;2023-03-21T00:22:40;8.70;99.90
1379;DHT22;683;48.738;9.226;2023-03-21T00:25:08;8.70;99.90
1379;DHT22;683;48.738;9.226;2023-03-21T00:27:36;8.70;99.90
1379;DHT22;683;48.738;9.226;2023-03-21T00:30:05;8.70;99.90
1379;DHT22;683;48.738;9.226;2023-03-21T00:32:33;8.70;99.90
1379;DHT22;683;48.738;9.226;2023-03-21T00:35:00;8.70;99.90
1379;DHT22;683;48.738;9.226;2023-03-21T00:37:32;8.70;99.90
1379;DHT22;683;48.738;9.226;2023-03-21T00:40:02;8.80;99.90
1379;DHT22;683;48.738;9.226;2023-03-21T00:42:34;8.80;99.90
1379;DHT22;683;48.738;9.226;2023-03-21T00:45:05;8.80;99.90
1379;DHT22;683;48.738;9.226;2023-03-21T00:47:35;8.80;99.90
1379;DHT22;683;48.738;9.226;2023-03-21T00:50:05;8.80;99.90
1379;DHT22;683;48.738;9.226;2023-03-21T00:52:34;8.80;99.90
1379;DHT22;683;48.738;9.226;2023-03-21T00:55:02;8.80;99.90
1379;DHT22;683;48.738;9.226;2023-03-21T00:57:29;8.90;99.90
1379;DHT22;683;48.738;9.226;2023-03-21T00:59:57;8.90;99.90
1379;DHT22;683;48.738;9.226;2023-03-21T01:02:25;8.90;99.90
1379;DHT22;683;48.738;9.226;2023-03-21T01:04:52;8.90;99.90
1379;DHT22;683;48.738;9.226;2023-03-21T01:07:20;8.90;99.90
1379;DHT22;683;48.738;9.226;2023-03-21T01:09:51;8.90;99.90
1379;DHT22;683;48.738;9.226;2023-03-21T01:12:19;8.90;99.90
1379;DHT22;683;48.738;9.226;2023-03-21T01:14:46;9.00;99.90
1379;DHT22;683;48.738;9.226;2023-03-21T01:17:13;9.00;99.90
1379;DHT22;683;48.738;9.226;2023-03-21T01:19:41;9.00;99.90
1379;DHT22;683;48.738;9.226;2023-03-21T01:22:08;9.00;99.90
1379;DHT22;683;48.738;9.226;2023-03-21T01:24:36;9.00;99.90
1379;DHT22;683;48.738;9.226;2023-03-21T01:27:04;9.00;99.90
1379;DHT22;683;48.738;9.226;2023-03-21T01:29:32;9.00;99.90
1379;DHT22;683;48.738;9.226;2023-03-21T01:31:59;9.00;99.90
1379;DHT22;683;48.738;9.226;2023-03-21T01:34:26;9.00;99.90
1379;DHT22;683;48.738;9.226;2023-03-21T01:36:55;9.00;99.90
1379;DHT22;683;48.738;9.226;2023-03-21T01:39:22;9.00;99.90
1379;DHT22;683;48.738;9.226;2023-03-21T01:41:50;9.00;99.90
1379;DHT22;683;48.738;9.226;2023-03-21T01:44:24;9.00;99.90
1379;DHT22;683;48.738;9.226;2023-03-21T01:46:52;9.00;99.90
1379;DHT22;683;48.738;9.226;2023-03-21T01:49:54;9.00;99.90
1379;DHT22;683;48.738;9.226;2023-03-21T01:52:34;9.00;99.90
1379;DHT22;683;48.738;9.226;2023-03-21T01:55:09;9.00;99.90
1379;DHT22;683;48.738;9.226;2023-03-21T01:57:46;9.00;99.90
1379;DHT22;683;48.738;9.226;2023-03-21T02:00:19;9.00;99.90
1379;DHT22;683;48.738;9.226;2023-03-21T02:03:00;9.00;99.90
1379;DHT22;683;48.738;9.226;2023-03-21T02:05:51;9.00;99.90
1379;DHT22;683;48.738;9.226;2023-03-21T02:08:21;9.00;99.90
1379;DHT22;683;48.738;9.226;2023-03-21T02:10:50;9.00;99.90
1379;DHT22;683;48.738;9.226;2023-03-21T02:13:30;9.00;99.90
1379;DHT22;683;48.738;9.226;2023-03-21T02:16:01;9.00;99.90
1379;DHT22;683;48.738;9.226;2023-03-21T02:18:44;9.00;99.90
1379;DHT22;683;48.738;9.226;2023-03-21T02:21:38;9.00;99.90
1379;DHT22;683;48.738;9.226;2023-03-21T02:25:00;9.00;99.90
1379;DHT22;683;48.738;9.226;2023-03-21T02:27:31;8.90;99.90
1379;DHT22;683;48.738;9.226;2023-03-21T02:33:29;8.90;99.90
1379;DHT22;683;48.738;9.226;2023-03-21T02:36:16;8.80;99.90
1379;DHT22;683;48.738;9.226;2023-03-21T02:38:53;8.80;99.90
1379;DHT22;683;48.738;9.226;2023-03-21T02:41:31;8.80;99.90
1379;DHT22;683;48.738;9.226;2023-03-21T02:44:06;8.70;99.90
1379;DHT22;683;48.738;9.226;2023-03-21T02:46:43;8.70;99.90
1379;DHT22;683;48.738;9.226;2023-03-21T02:49:18;8.70;99.90
1379;DHT22;683;48.738;9.226;2023-03-21T02:51:49;8.70;99.90
1379;DHT22;683;48.738;9.226;2023-03-21T02:54:22;8.60;99.90
1379;DHT22;683;48.738;9.226;2023-03-21T02:56:53;8.60;99.90
1379;DHT22;683;48.738;9.226;2023-03-21T02:59:23;8.60;99.90
1379;DHT22;683;48.738;9.226;2023-03-21T03:01:55;8.60;99.90
1379;DHT22;683;48.738;9.226;2023-03-21T03:04:23;8.60;99.90
1379;DHT22;683;48.738;9.226;2023-03-21T03:07:12;8.50;99.90
1379;DHT22;683;48.738;9.226;2023-03-21T03:09:58;8.50;99.90
1379;DHT22;683;48.738;9.226;2023-03-21T03:12:36;8.40;99.90
1379;DHT22;683;48.738;9.226;2023-03-21T03:15:13;8.40;99.90
1379;DHT22;683;48.738;9.226;2023-03-21T03:17:50;8.40;99.90
1379;DHT22;683;48.738;9.226;2023-03-21T03:20:29;8.30;99.90
1379;DHT22;683;48.738;9.226;2023-03-21T03:23:09;8.30;99.90
1379;DHT22;683;48.738;9.226;2023-03-21T03:25:45;8.30;99.90
1379;DHT22;683;48.738;9.226;2023-03-21T03:28:24;8.20;99.90
1379;DHT22;683;48.738;9.226;2023-03-21T03:30:53;8.20;99.90
1379;DHT22;683;48.738;9.226;2023-03-21T03:33:24;8.20;99.90
1379;DHT22;683;48.738;9.226;2023-03-21T03:35:54;8.20;99.90
1379;DHT22;683;48.738;9.226;2023-03-21T03:38:24;8.20;99.90
1379;DHT22;683;48.738;9.226;2023-03-21T03:40:57;8.20;99.90
1379;DHT22;683;48.738;9.226;2023-03-21T03:43:42;8.20;99.90
1379;DHT22;683;48.738;9.226;2023-03-21T03:46:17;8.20;99.90
1379;DHT22;683;48.738;9.226;2023-03-21T03:48:48;8.20;99.90
1379;DHT22;683;48.738;9.226;2023-03-21T03:51:20;8.30;99.90
1379;DHT22;683;48.738;9.226;2023-03-21T03:54:05;8.30;99.90
1379;DHT22;683;48.738;9.226;2023-03-21T03:56:35;8.30;99.90
1379;DHT22;683;48.738;9.226;2023-03-21T03:59:04;8.30;99.90
1379;DHT22;683;48.738;9.226;2023-03-21T04:01:49;8.30;99.90
1379;DHT22;683;48.738;9.226;2023-03-21T04:04:19;8.30;99.90
1379;DHT22;683;48.738;9.226;2023-03-21T04:06:48;8.30;99.90
1379;DHT22;683;48.738;9.226;2023-03-21T04:09:21;8.30;99.90
1379;DHT22;683;48.738;9.226;2023-03-21T04:11:50;8.30;99.90
1379;DHT22;683;48.738;9.226;2023-03-21T04:14:18;8.20;99.90
1379;DHT22;683;48.738;9.226;2023-03-21T04:16:46;8.30;99.90
1379;DHT22;683;48.738;9.226;2023-03-21T04:19:14;8.20;99.90
1379;DHT22;683;48.738;9.226;2023-03-21T04:21:41;8.30;99.90
1379;DHT22;683;48.738;9.226;2023-03-21T04:24:09;8.20;99.90
1379;DHT22;683;48.738;9.226;2023-03-21T04:26:38;8.20;99.90
1379;DHT22;683;48.738;9.226;2023-03-21T04:29:24;8.20;99.90
1379;DHT22;683;48.738;9.226;2023-03-21T04:32:13;8.20;99.90
1379;DHT22;683;48.738;9.226;2023-03-21T04:34:46;8.20;99.90
1379;DHT22;683;48.738;9.226;2023-03-21T04:37:15;8.10;99.90
1379;DHT22;683;48.738;9.226;2023-03-21T04:39:45;8.10;99.90
1379;DHT22;683;48.738;9.226;2023-03-21T04:42:12;8.10;99.90
1379;DHT22;683;48.738;9.226;2023-03-21T04:44:42;8.00;99.90
1379;DHT22;683;48.738;9.226;2023-03-21T04:47:09;7.90;99.90
1379;DHT22;683;48.738;9.226;2023-03-21T04:49:38;7.80;99.90
1379;DHT22;683;48.738;9.226;2023-03-21T04:52:06;7.70;99.90
1379;DHT22;683;48.738;9.226;2023-03-21T04:54:33;7.60;99.90
1379;DHT22;683;48.738;9.226;2023-03-21T04:57:02;7.50;99.90
1379;DHT22;683;48.738;9.226;2023-03-21T04:59:30;7.50;99.90
1379;DHT22;683;48.738;9.226;2023-03-21T05:01:58;7.40;99.90
1379;DHT22;683;48.738;9.226;2023-03-21T05:04:27;7.40;99.90
1379;DHT22;683;48.738;9.226;2023-03-21T05:06:56;7.30;99.90
1379;DHT22;683;48.738;9.226;2023-03-21T05:09:24;7.30;99.90
1379;DHT22;683;48.738;9.226;2023-03-21T05:11:53;7.20;99.90
1379;DHT22;683;48.738;9.226;2023-03-21T05:14:22;7.20;99.90
1379;DHT22;683;48.738;9.226;2023-03-21T05:16:50;7.20;99.90
1379;DHT22;683;48.738;9.226;2023-03-21T05:19:24;7.20;99.90
1379;DHT22;683;48.738;9.226;2023-03-21T05:22:02;7.20;99.90
1379;DHT22;683;48.738;9.226;2023-03-21T05:24:31;7.10;99.90
1379;DHT22;683;48.738;9.226;2023-03-21T05:27:00;7.10;99.90
1379;DHT22;683;48.738;9.226;2023-03-21T05:29:31;7.10;99.90
1379;DHT22;683;48.738;9.226;2023-03-21T05:32:04;7.10;99.90
1379;DHT22;683;48.738;9.226;2023-03-21T05:34:35;7.10;99.90
1379;DHT22;683;48.738;9.226;2023-03-21T05:37:03;7.10;99.90
1379;DHT22;683;48.738;9.226;2023-03-21T05:39:43;7.10;99.90
1379;DHT22;683;48.738;9.226;2023-03-21T05:42:17;7.20;99.90
1379;DHT22;683;48.738;9.226;2023-03-21T05:44:45;7.20;99.90
1379;DHT22;683;48.738;9.226;2023-03-21T05:47:15;7.20;99.90
1379;DHT22;683;48.738;9.226;2023-03-21T05:49:47;7.30;99.90
1379;DHT22;683;48.738;9.226;2023-03-21T05:52:15;7.30;99.90
1379;DHT22;683;48.738;9.226;2023-03-21T05:54:44;7.40;99.90
1379;DHT22;683;48.738;9.226;2023-03-21T05:57:12;7.40;99.90
1379;DHT22;683;48.738;9.226;2023-03-21T05:59:58;7.40;99.90
1379;DHT22;683;48.738;9.226;2023-03-21T06:02:27;7.50;99.90
1379;DHT22;683;48.738;9.226;2023-03-21T06:05:00;7.60;99.90
1379;DHT22;683;48.738;9.226;2023-03-21T06:07:27;7.60;99.90
1379;DHT22;683;48.738;9.226;2023-03-21T06:09:55;7.70;99.90
1379;DHT22;683;48.738;9.226;2023-03-21T06:12:22;7.70;99.90
1379;DHT22;683;48.738;9.226;2023-03-21T06:15:15;7.80;99.90
1379;DHT22;683;48.738;9.226;2023-03-21T06:18:11;7.80;99.90
1379;DHT22;683;48.738;9.226;2023-03-21T06:20:50;7.80;99.90
1379;DHT22;683;48.738;9.226;2023-03-21T06:23:17;7.80;99.90
1379;DHT22;683;48.738;9.226;2023-03-21T06:25:47;7.90;99.90
1379;DHT22;683;48.738;9.226;2023-03-21T06:28:14;7.90;99.90
1379;DHT22;683;48.738;9.226;2023-03-21T06:30:42;7.90;99.90
1379;DHT22;683;48.738;9.226;2023-03-21T06:33:18;7.90;99.90
1379;DHT22;683;48.738;9.226;2023-03-21T06:35:51;7.90;99.90
1379;DHT22;683;48.738;9.226;2023-03-21T06:38:19;7.90;99.90
1379;DHT22;683;48.738;9.226;2023-03-21T06:40:47;7.90;99.90
1379;DHT22;683;48.738;9.226;2023-03-21T06:43:15;7.90;99.90
1379;DHT22;683;48.738;9.226;2023-03-21T06:45:44;7.90;99.90
1379;DHT22;683;48.738;9.226;2023-03-21T06:48:11;7.90;99.90
1379;DHT22;683;48.738;9.226;2023-03-21T06:50:53;7.80;99.90
1379;DHT22;683;48.738;9.226;2023-03-21T06:53:24;7.80;99.90
1379;DHT22;683;48.738;9.226;2023-03-21T06:56:07;7.80;99.90
1379;DHT22;683;48.738;9.226;2023-03-21T06:58:39;7.80;99.90
1379;DHT22;683;48.738;9.226;2023-03-21T07:01:12;7.80;99.90
1379;DHT22;683;48.738;9.226;2023-03-21T07:03:51;7.90;99.90
1379;DHT22;683;48.738;9.226;2023-03-21T07:06:23;7.90;99.90
1379;DHT22;683;48.738;9.226;2023-03-21T07:08:52;8.00;99.90
1379;DHT22;683;48.738;9.226;2023-03-21T07:11:20;8.10;99.90
1379;DHT22;683;48.738;9.226;2023-03-21T07:13:50;8.10;99.90
1379;DHT22;683;48.738;9.226;2023-03-21T07:16:18;8.20;99.90
1379;DHT22;683;48.738;9.226;2023-03-21T07:18:46;8.40;99.90
1379;DHT22;683;48.738;9.226;2023-03-21T07:21:14;8.40;99.90
1379;DHT22;683;48.738;9.226;2023-03-21T07:23:43;8.60;99.90
1379;DHT22;683;48.738;9.226;2023-03-21T07:26:11;8.70;99.90
1379;DHT22;683;48.738;9.226;2023-03-21T07:28:41;8.80;99.90
1379;DHT22;683;48.738;9.226;2023-03-21T07:31:13;8.90;99.90
1379;DHT22;683;48.738;9.226;2023-03-21T07:33:41;9.10;99.90
1379;DHT22;683;48.738;9.226;2023-03-21T07:36:10;9.30;99.90
1379;DHT22;683;48.738;9.226;2023-03-21T07:38:38;9.40;99.90
1379;DHT22;683;48.738;9.226;2023-03-21T07:41:07;9.50;99.90
1379;DHT22;683;48.738;9.226;2023-03-21T07:43:35;9.50;99.90
1379;DHT22;683;48.738;9.226;2023-03-21T07:46:02;9.50;99.90
1379;DHT22;683;48.738;9.226;2023-03-21T07:48:31;9.50;99.90
1379;DHT22;683;48.738;9.226;2023-03-21T07:51:00;9.50;99.90
1379;DHT22;683;48.738;9.226;2023-03-21T07:53:28;9.60;99.90
1379;DHT22;683;48.738;9.226;2023-03-21T07:55:55;9.70;99.90
1379;DHT22;683;48.738;9.226;2023-03-21T07:58:24;9.80;99.90
1379;DHT22;683;48.738;9.226;2023-03-21T08:00:52;9.90;99.90
1379;DHT22;683;48.738;9.226;2023-03-21T08:03:20;10.00;99.90
1379;DHT22;683;48.738;9.226;2023-03-21T08:05:51;10.10;99.90
1379;DHT22;683;48.738;9.226;2023-03-21T08:08:18;10.20;99.90
1379;DHT22;683;48.738;9.226;2023-03-21T08:10:46;10.20;99.90
1379;DHT22;683;48.738;9.226;2023-03-21T08:13:13;10.40;99.90
1379;DHT22;683;48.738;9.226;2023-03-21T08:15:45;10.50;99.90
1379;DHT22;683;48.738;9.226;2023-03-21T08:18:12;10.50;99.90
1379;DHT22;683;48.738;9.226;2023-03-21T08:20:39;10.60;99.90
1379;DHT22;683;48.738;9.226;2023-03-21T08:23:07;10.70;99.90
1379;DHT22;683;48.738;9.226;2023-03-21T08:25:36;10.60;99.30
1379;DHT22;683;48.738;9.226;2023-03-21T08:28:05;10.60;99.50
1379;DHT22;683;48.738;9.226;2023-03-21T08:30:32;10.80;99.00
1379;DHT22;683;48.738;9.226;2023-03-21T08:33:01;10.80;98.30
1379;DHT22;683;48.738;9.226;2023-03-21T08:35:29;10.90;98.20
1379;DHT22;683;48.738;9.226;2023-03-21T08:37:57;11.00;98.10
1379;DHT22;683;48.738;9.226;2023-03-21T08:40:24;11.10;98.10
1379;DHT22;683;48.738;9.226;2023-03-21T08:42:52;11.30;97.80
1379;DHT22;683;48.738;9.226;2023-03-21T08:45:19;11.50;97.60
1379;DHT22;683;48.738;9.226;2023-03-21T08:47:47;11.80;96.80
1379;DHT22;683;48.738;9.226;2023-03-21T08:50:18;12.00;95.30
1379;DHT22;683;48.738;9.226;2023-03-21T08:52:45;12.10;94.50
1379;DHT22;683;48.738;9.226;2023-03-21T08:55:14;12.10;93.20
1379;DHT22;683;48.738;9.226;2023-03-21T08:57:42;12.20;92.30
1379;DHT22;683;48.738;9.226;2023-03-21T09:00:12;12.30;93.10
1379;DHT22;683;48.738;9.226;2023-03-21T09:02:42;12.50;93.30
1379;DHT22;683;48.738;9.226;2023-03-21T09:05:10;12.70;92.70
1379;DHT22;683;48.738;9.226;2023-03-21T09:07:39;12.90;92.20
1379;DHT22;683;48.738;9.226;2023-03-21T09:10:08;13.00;92.10
1379;DHT22;683;48.738;9.226;2023-03-21T09:12:36;13.20;90.50
1379;DHT22;683;48.738;9.226;2023-03-21T09:15:06;13.30;90.50
1379;DHT22;683;48.738;9.226;2023-03-21T09:17:33;13.40;90.00
1379;DHT22;683;48.738;9.226;2023-03-21T09:20:01;13.50;90.20
1379;DHT22;683;48.738;9.226;2023-03-21T09:22:33;13.70;90.40
1379;DHT22;683;48.738;9.226;2023-03-21T09:25:02;13.80;88.10
1379;DHT22;683;48.738;9.226;2023-03-21T09:27:32;13.90;87.60
1379;DHT22;683;48.738;9.226;2023-03-21T09:29:59;14.10;87.50
1379;DHT22;683;48.738;9.226;2023-03-21T09:32:28;14.20;87.10
1379;DHT22;683;48.738;9.226;2023-03-21T09:34:56;14.20;90.20
1379;DHT22;683;48.738;9.226;2023-03-21T09:37:23;14.30;89.00
1379;DHT22;683;48.738;9.226;2023-03-21T09:39:52;14.40;87.30
1379;DHT22;683;48.738;9.226;2023-03-21T09:42:31;14.20;84.40
1379;DHT22;683;48.738;9.226;2023-03-21T09:45:07;14.10;84.00
1379;DHT22;683;48.738;9.226;2023-03-21T09:47:40;14.00;84.40
1379;DHT22;683;48.738;9.226;2023-03-21T09:50:16;14.10;83.50
1379;DHT22;683;48.738;9.226;2023-03-21T09:52:47;14.20;84.70
1379;DHT22;683;48.738;9.226;2023-03-21T09:55:19;14.30;86.10
1379;DHT22;683;48.738;9.226;2023-03-21T09:57:53;14.50;85.30
1379;DHT22;683;48.738;9.226;2023-03-21T10:00:26;14.70;83.30
1379;DHT22;683;48.738;9.226;2023-03-21T10:03:02;14.90;81.30
1379;DHT22;683;48.738;9.226;2023-03-21T10:05:32;15.00;80.90
1379;DHT22;683;48.738;9.226;2023-03-21T10:08:03;15.30;80.40
1379;DHT22;683;48.738;9.226;2023-03-21T10:10:35;15.50;79.00
1379;DHT22;683;48.738;9.226;2023-03-21T10:13:05;15.80;79.10
1379;DHT22;683;48.738;9.226;2023-03-21T10:15:36;15.90;78.30
1379;DHT22;683;48.738;9.226;2023-03-21T10:18:05;15.90;79.70
1379;DHT22;683;48.738;9.226;2023-03-21T10:20:35;16.10;79.80
1379;DHT22;683;48.738;9.226;2023-03-21T10:23:05;16.20;78.80
1379;DHT22;683;48.738;9.226;2023-03-21T10:25:35;16.40;78.10
1379;DHT22;683;48.738;9.226;2023-03-21T10:28:06;16.60;76.20
1379;DHT22;683;48.738;9.226;2023-03-21T10:30:39;16.70;76.20
1379;DHT22;683;48.738;9.226;2023-03-21T10:33:11;16.70;75.00
1379;DHT22;683;48.738;9.226;2023-03-21T10:35:41;16.80;74.70
1379;DHT22;683;48.738;9.226;2023-03-21T10:38:14;16.80;74.80
1379;DHT22;683;48.738;9.226;2023-03-21T10:40:42;16.90;74.50
1379;DHT22;683;48.738;9.226;2023-03-21T10:43:29;16.90;73.30
1379;DHT22;683;48.738;9.226;2023-03-21T10:46:05;17.10;72.50
1379;DHT22;683;48.738;9.226;2023-03-21T10:48:36;17.10;70.20
1379;DHT22;683;48.738;9.226;2023-03-21T10:51:06;17.20;68.40
1379;DHT22;683;48.738;9.226;2023-03-21T10:53:37;17.30;70.50
1379;DHT22;683;48.738;9.226;2023-03-21T10:56:08;17.20;71.70
1379;DHT22;683;48.738;9.226;2023-03-21T10:58:41;17.50;72.10
1379;DHT22;683;48.738;9.226;2023-03-21T11:01:20;17.50;68.40
1379;DHT22;683;48.738;9.226;2023-03-21T11:03:55;17.30;66.50
1379;DHT22;683;48.738;9.226;2023-03-21T11:06:28;17.40;68.20
1379;DHT22;683;48.738;9.226;2023-03-21T11:09:00;17.40;67.80
1379;DHT22;683;48.738;9.226;2023-03-21T11:11:33;17.60;67.60
1379;DHT22;683;48.738;9.226;2023-03-21T11:14:06;17.60;66.30
1379;DHT22;683;48.738;9.226;2023-03-21T11:16:39;17.70;67.40
1379;DHT22;683;48.738;9.226;2023-03-21T11:19:15;17.90;65.70
1379;DHT22;683;48.738;9.226;2023-03-21T11:21:43;18.10;64.80
1379;DHT22;683;48.738;9.226;2023-03-21T11:24:13;18.30;65.20
1379;DHT22;683;48.738;9.226;2023-03-21T11:26:45;18.50;64.00
1379;DHT22;683;48.738;9.226;2023-03-21T11:29:26;18.50;63.90
1379;DHT22;683;48.738;9.226;2023-03-21T11:31:57;18.30;63.40
1379;DHT22;683;48.738;9.226;2023-03-21T11:34:31;18.10;62.10
1379;DHT22;683;48.738;9.226;2023-03-21T11:37:01;17.90;61.10
1379;DHT22;683;48.738;9.226;2023-03-21T11:39:36;17.50;57.40
1379;DHT22;683;48.738;9.226;2023-03-21T11:42:25;17.30;58.90
1379;DHT22;683;48.738;9.226;2023-03-21T11:45:00;17.50;60.30
1379;DHT22;683;48.738;9.226;2023-03-21T11:47:28;17.60;59.70
1379;DHT22;683;48.738;9.226;2023-03-21T11:49:56;17.70;60.00
1379;DHT22;683;48.738;9.226;2023-03-21T11:52:31;17.80;60.90
1379;DHT22;683;48.738;9.226;2023-03-21T11:55:22;17.80;61.60
1379;DHT22;683;48.738;9.226;2023-03-21T11:58:00;18.00;61.30
1379;DHT22;683;48.738;9.226;2023-03-21T12:00:36;18.00;60.00
1379;DHT22;683;48.738;9.226;2023-03-21T12:03:24;17.70;60.20
1379;DHT22;683;48.738;9.226;2023-03-21T12:05:59;17.40;59.80
1379;DHT22;683;48.738;9.226;2023-03-21T12:08:37;17.40;58.40
1379;DHT22;683;48.738;9.226;2023-03-21T12:11:11;17.40;57.30
1379;DHT22;683;48.738;9.226;2023-03-21T12:13:50;17.40;58.20
1379;DHT22;683;48.738;9.226;2023-03-21T12:16:42;17.50;58.20
1379;DHT22;683;48.738;9.226;2023-03-21T12:19:42;17.70;57.00
1379;DHT22;683;48.738;9.226;2023-03-21T12:22:20;17.60;56.90
1379;DHT22;683;48.738;9.226;2023-03-21T12:24:54;17.50;57.80
1379;DHT22;683;48.738;9.226;2023-03-21T12:27:30;17.50;57.60
1379;DHT22;683;48.738;9.226;2023-03-21T12:30:12;17.50;57.10
1379;DHT22;683;48.738;9.226;2023-03-21T12:32:55;17.30;56.30
1379;DHT22;683;48.738;9.226;2023-03-21T12:35:45;17.20;55.10
1379;DHT22;683;48.738;9.226;2023-03-21T12:38:21;17.20;56.40
1379;DHT22;683;48.738;9.226;2023-03-21T12:41:01;17.20;54.70
1379;DHT22;683;48.738;9.226;2023-03-21T12:43:43;17.10;55.40
1379;DHT22;683;48.738;9.226;2023-03-21T12:46:16;17.10;55.70
1379;DHT22;683;48.738;9.226;2023-03-21T12:48:50;17.30;55.20
1379;DHT22;683;48.738;9.226;2023-03-21T12:51:28;17.00;55.10
1379;DHT22;683;48.738;9.226;2023-03-21T12:54:06;17.00;55.50
1379;DHT22;683;48.738;9.226;2023-03-21T12:56:40;17.20;54.30
1379;DHT22;683;48.738;9.226;2023-03-21T12:59:20;17.30;55.10
1379;DHT22;683;48.738;9.226;2023-03-21T13:01:52;17.40;54.70
1379;DHT22;683;48.738;9.226;2023-03-21T13:04:48;17.40;55.50
1379;DHT22;683;48.738;9.226;2023-03-21T13:07:21;17.70;55.40
1379;DHT22;683;48.738;9.226;2023-03-21T13:09:51;18.20;55.60
1379;DHT22;683;48.738;9.226;2023-03-21T13:12:42;18.40;53.40
1379;DHT22;683;48.738;9.226;2023-03-21T13:15:27;18.50;52.80
1379;DHT22;683;48.738;9.226;2023-03-21T13:17:59;18.80;53.20
1379;DHT22;683;48.738;9.226;2023-03-21T13:20:36;19.00;53.50
1379;DHT22;683;48.738;9.226;2023-03-21T13:23:07;19.20;52.70
1379;DHT22;683;48.738;9.226;2023-03-21T13:25:42;19.30;50.50
1379;DHT22;683;48.738;9.226;2023-03-21T13:28:18;19.30;51.60
1379;DHT22;683;48.738;9.226;2023-03-21T13:30:47;19.40;51.90
1379;DHT22;683;48.738;9.226;2023-03-21T13:33:20;19.40;52.30
1379;DHT22;683;48.738;9.226;2023-03-21T13:35:58;19.50;52.30
1379;DHT22;683;48.738;9.226;2023-03-21T13:38:33;19.40;52.90
1379;DHT22;683;48.738;9.226;2023-03-21T13:41:06;19.40;51.60
1379;DHT22;683;48.738;9.226;2023-03-21T13:43:40;19.40;51.30
1379;DHT22;683;48.738;9.226;2023-03-21T13:46:11;19.00;52.00
1379;DHT22;683;48.738;9.226;2023-03-21T13:48:44;18.90;52.20
1379;DHT22;683;48.738;9.226;2023-03-21T13:51:41;18.90;53.00
1379;DHT22;683;48.738;9.226;2023-03-21T13:54:17;19.10;53.30
1379;DHT22;683;48.738;9.226;2023-03-21T13:56:53;19.20;52.60
1379;DHT22;683;48.738;9.226;2023-03-21T13:59:41;19.20;51.70
1379;DHT22;683;48.738;9.226;2023-03-21T14:02:30;19.00;50.50
1379;DHT22;683;48.738;9.226;2023-03-21T14:05:03;19.30;50.70
1379;DHT22;683;48.738;9.226;2023-03-21T14:07:35;19.20;47.90
1379;DHT22;683;48.738;9.226;2023-03-21T14:10:05;19.20;47.80
1379;DHT22;683;48.738;9.226;2023-03-21T14:12:38;19.30;47.70
1379;DHT22;683;48.738;9.226;2023-03-21T14:15:12;19.40;47.00
1379;DHT22;683;48.738;9.226;2023-03-21T14:17:49;19.50;45.00
1379;DHT22;683;48.738;9.226;2023-03-21T14:20:20;19.30;45.40
1379;DHT22;683;48.738;9.226;2023-03-21T14:22:50;19.20;45.60
1379;DHT22;683;48.738;9.226;2023-03-21T14:25:19;19.10;45.20
1379;DHT22;683;48.738;9.226;2023-03-21T14:27:48;19.00;46.00
1379;DHT22;683;48.738;9.226;2023-03-21T14:30:22;19.00;47.10
1379;DHT22;683;48.738;9.226;2023-03-21T14:32:53;19.00;48.40
1379;DHT22;683;48.738;9.226;2023-03-21T14:35:22;18.80;48.70
1379;DHT22;683;48.738;9.226;2023-03-21T14:37:52;18.70;50.40
1379;DHT22;683;48.738;9.226;2023-03-21T14:40:23;18.80;50.10
1379;DHT22;683;48.738;9.226;2023-03-21T14:42:53;19.00;50.40
1379;DHT22;683;48.738;9.226;2023-03-21T14:45:22;18.90;48.70
1379;DHT22;683;48.738;9.226;2023-03-21T14:47:55;18.70;48.30
1379;DHT22;683;48.738;9.226;2023-03-21T14:50:27;18.50;49.60
1379;DHT22;683;48.738;9.226;2023-03-21T14:52:58;18.50;49.90
1379;DHT22;683;48.738;9.226;2023-03-21T14:55:26;18.40;55.20
1379;DHT22;683;48.738;9.226;2023-03-21T14:57:54;18.50;58.30
1379;DHT22;683;48.738;9.226;2023-03-21T15:00:25;18.70;59.00
1379;DHT22;683;48.738;9.226;2023-03-21T15:02:54;18.70;59.50
1379;DHT22;683;48.738;9.226;2023-03-21T15:05:25;18.40;59.90
1379;DHT22;683;48.738;9.226;2023-03-21T15:07:55;18.20;60.40
1379;DHT22;683;48.738;9.226;2023-03-21T15:10:26;18.10;61.50
1379;DHT22;683;48.738;9.226;2023-03-21T15:12:55;18.10;60.70
1379;DHT22;683;48.738;9.226;2023-03-21T15:15:24;18.10;61.10
1379;DHT22;683;48.738;9.226;2023-03-21T15:17:52;18.10;60.90
1379;DHT22;683;48.738;9.226;2023-03-21T15:20:23;18.10;60.80
1379;DHT22;683;48.738;9.226;2023-03-21T15:22:54;18.00;62.30
1379;DHT22;683;48.738;9.226;2023-03-21T15:25:26;18.00;62.00
1379;DHT22;683;48.738;9.226;2023-03-21T15:27:55;18.00;62.10
1379;DHT22;683;48.738;9.226;2023-03-21T15:30:25;18.10;62.90
1379;DHT22;683;48.738;9.226;2023-03-21T15:32:54;18.10;62.40
1379;DHT22;683;48.738;9.226;2023-03-21T15:35:26;18.10;62.70
1379;DHT22;683;48.738;9.226;2023-03-21T15:37:55;18.10;62.20
1379;DHT22;683;48.738;9.226;2023-03-21T15:40:24;18.10;62.00
1379;DHT22;683;48.738;9.226;2023-03-21T15:43:05;18.00;62.30
1379;DHT22;683;48.738;9.226;2023-03-21T15:45:33;18.00;62.20
1379;DHT22;683;48.738;9.226;2023-03-21T15:48:12;17.90;62.50
1379;DHT22;683;48.738;9.226;2023-03-21T15:50:41;17.60;62.20
1379;DHT22;683;48.738;9.226;2023-03-21T15:53:15;17.40;63.30
1379;DHT22;683;48.738;9.226;2023-03-21T15:55:44;17.20;63.60
1379;DHT22;683;48.738;9.226;2023-03-21T15:58:18;16.90;64.10
1379;DHT22;683;48.738;9.226;2023-03-21T16:00:48;16.70;64.70
1379;DHT22;683;48.738;9.226;2023-03-21T16:03:20;16.50;65.60
1379;DHT22;683;48.738;9.226;2023-03-21T16:06:02;16.30;66.20
1379;DHT22;683;48.738;9.226;2023-03-21T16:08:32;16.20;67.00
1379;DHT22;683;48.738;9.226;2023-03-21T16:11:10;16.00;67.20
1379;DHT22;683;48.738;9.226;2023-03-21T16:13:41;15.80;68.40
1379;DHT22;683;48.738;9.226;2023-03-21T16:16:14;15.60;69.40
1379;DHT22;683;48.738;9.226;2023-03-21T16:18:44;15.40;70.00
1379;DHT22;683;48.738;9.226;2023-03-21T16:21:12;15.30;70.50
1379;DHT22;683;48.738;9.226;2023-03-21T16:23:40;15.20;71.50
1379;DHT22;683;48.738;9.226;2023-03-21T16:26:10;15.10;72.10
1379;DHT22;683;48.738;9.226;2023-03-21T16:28:38;15.00;72.40
1379;DHT22;683;48.738;9.226;2023-03-21T16:31:10;14.90;73.10
1379;DHT22;683;48.738;9.226;2023-03-21T16:33:39;14.80;74.00
1379;DHT22;683;48.738;9.226;2023-03-21T16:36:11;14.70;74.20
1379;DHT22;683;48.738;9.226;2023-03-21T16:38:38;14.60;74.70
1379;DHT22;683;48.738;9.226;2023-03-21T16:41:09;14.50;75.70
1379;DHT22;683;48.738;9.226;2023-03-21T16:43:39;14.40;75.90
1379;DHT22;683;48.738;9.226;2023-03-21T16:46:14;14.30;76.40
1379;DHT22;683;48.738;9.226;2023-03-21T16:48:44;14.20;77.10
1379;DHT22;683;48.738;9.226;2023-03-21T16:51:12;14.10;77.70
1379;DHT22;683;48.738;9.226;2023-03-21T16:53:40;14.00;77.80
1379;DHT22;683;48.738;9.226;2023-03-21T16:56:12;13.90;77.90
1379;DHT22;683;48.738;9.226;2023-03-21T16:58:40;13.80;78.50
1379;DHT22;683;48.738;9.226;2023-03-21T17:01:13;13.70;78.90